createdAt,value
2023-04-28T00:00:14.759Z,5.20
2023-04-28T00:02:43.313Z,5.20
2023-04-28T00:05:12.485Z,5.30
2023-04-28T00:07:41.207Z,5.30
2023-04-28T00:10:11.103Z,5.30
2023-04-28T00:12:41.108Z,5.20
2023-04-28T00:15:10.372Z,5.20
2023-04-28T00:17:39.048Z,5.10
2023-04-28T00:20:09.232Z,5.00
2023-04-28T00:22:37.745Z,5.00
2023-04-28T00:25:07.025Z,5.00
2023-04-28T00:27:35.800Z,5.00
2023-04-28T00:30:06.488Z,5.00
2023-04-28T00:32:34.954Z,5.10
2023-04-28T00:35:03.492Z,5.00
2023-04-28T00:37:31.985Z,5.00
2023-04-28T00:40:00.529Z,5.00
2023-04-28T00:42:29.235Z,5.00
2023-04-28T00:44:57.937Z,5.00
2023-04-28T00:47:28.021Z,5.00
2023-04-28T00:49:57.443Z,5.00
2023-04-28T00:52:26.137Z,5.10
2023-04-28T00:54:54.750Z,5.00
2023-04-28T00:57:24.039Z,5.00
2023-04-28T00:59:52.576Z,5.00
2023-04-28T01:02:21.134Z,4.90
2023-04-28T01:04:53.078Z,4.90
2023-04-28T01:07:21.694Z,4.90
2023-04-28T01:09:50.704Z,4.80
2023-04-28T01:12:19.153Z,4.80
2023-04-28T01:14:47.867Z,4.80
2023-04-28T01:17:16.640Z,4.80
2023-04-28T01:19:45.296Z,4.80
2023-04-28T01:22:16.991Z,4.80
2023-04-28T01:24:46.867Z,4.80
2023-04-28T01:27:15.336Z,4.80
2023-04-28T01:29:43.872Z,4.80
2023-04-28T01:32:12.413Z,4.80
2023-04-28T01:34:40.856Z,4.80
2023-04-28T01:37:09.274Z,4.80
2023-04-28T01:39:37.713Z,4.80
2023-04-28T01:42:07.811Z,4.80
2023-04-28T01:44:36.504Z,4.80
2023-04-28T01:47:05.148Z,4.80
2023-04-28T01:49:33.571Z,4.80
2023-04-28T01:52:02.000Z,4.70
2023-04-28T01:54:30.530Z,4.70
2023-04-28T01:56:58.970Z,4.70
2023-04-28T01:59:28.862Z,4.70
2023-04-28T02:01:57.318Z,4.70
2023-04-28T02:04:26.487Z,4.70
2023-04-28T02:06:55.159Z,4.70
2023-04-28T02:09:23.666Z,4.60
2023-04-28T02:11:52.192Z,4.60
2023-04-28T02:14:20.749Z,4.60
2023-04-28T02:16:50.783Z,4.60
2023-04-28T02:19:19.245Z,4.60
2023-04-28T02:21:47.936Z,4.60
2023-04-28T02:24:16.642Z,4.60
2023-04-28T02:26:45.577Z,4.60
2023-04-28T02:29:14.060Z,4.60
2023-04-28T02:31:42.551Z,4.70
2023-04-28T02:34:12.633Z,4.70
2023-04-28T02:36:41.067Z,4.70
2023-04-28T02:39:09.594Z,4.70
2023-04-28T02:41:37.941Z,4.70
2023-04-28T02:44:06.697Z,4.70
2023-04-28T02:46:35.289Z,4.70
2023-04-28T02:49:03.822Z,4.70
2023-04-28T02:51:33.712Z,4.70
2023-04-28T02:54:02.490Z,4.70
2023-04-28T02:56:31.195Z,4.60
2023-04-28T02:58:59.631Z,4.70
2023-04-28T03:01:28.245Z,4.60
2023-04-28T03:03:56.909Z,4.70
2023-04-28T03:06:26.883Z,4.60
2023-04-28T03:08:56.744Z,4.70
2023-04-28T03:11:25.860Z,4.70
2023-04-28T03:13:54.399Z,4.70
2023-04-28T03:16:22.844Z,4.60
2023-04-28T03:18:51.358Z,4.70
2023-04-28T03:21:19.967Z,4.70
2023-04-28T03:23:48.446Z,4.70
2023-04-28T03:26:18.422Z,4.70
2023-04-28T03:28:46.831Z,4.70
2023-04-28T03:31:15.636Z,4.70
2023-04-28T03:33:45.717Z,4.70
2023-04-28T03:36:14.569Z,4.70
2023-04-28T03:38:43.282Z,4.70
2023-04-28T03:41:11.982Z,4.80
2023-04-28T03:43:42.060Z,4.70
2023-04-28T03:46:10.762Z,4.80
2023-04-28T03:48:39.383Z,4.80
2023-04-28T03:51:07.971Z,4.80
2023-04-28T03:53:36.448Z,4.80
2023-04-28T03:56:04.997Z,4.80
2023-04-28T03:58:33.475Z,4.90
2023-04-28T04:01:03.412Z,4.90
2023-04-28T04:03:32.309Z,4.90
2023-04-28T04:06:00.782Z,5.00
2023-04-28T04:08:29.450Z,5.00
2023-04-28T04:10:57.880Z,5.10
2023-04-28T04:13:26.209Z,5.10
2023-04-28T04:15:54.487Z,5.10
2023-04-28T04:18:24.553Z,5.20
2023-04-28T04:20:54.192Z,5.20
2023-04-28T04:23:22.508Z,5.30
2023-04-28T04:25:51.071Z,5.40
2023-04-28T04:28:19.432Z,5.40
2023-04-28T04:30:47.936Z,5.50
2023-04-28T04:33:16.536Z,5.50
2023-04-28T04:35:46.376Z,5.60
2023-04-28T04:38:14.907Z,5.60
2023-04-28T04:40:43.242Z,5.70
2023-04-28T04:43:11.640Z,5.70
2023-04-28T04:45:40.295Z,5.80
2023-04-28T04:48:08.746Z,5.80
2023-04-28T04:50:37.172Z,6.00
2023-04-28T04:53:09.137Z,5.90
2023-04-28T04:55:39.564Z,6.00
2023-04-28T04:58:08.011Z,6.00
2023-04-28T05:00:37.461Z,6.10
2023-04-28T05:03:06.620Z,6.20
2023-04-28T05:05:35.173Z,6.30
2023-04-28T05:08:03.847Z,6.40
2023-04-28T05:10:34.014Z,6.60
2023-04-28T05:13:02.617Z,6.70
2023-04-28T05:15:31.675Z,6.80
2023-04-28T05:18:00.469Z,6.90
2023-04-28T05:20:29.016Z,7.00
2023-04-28T05:22:57.734Z,7.20
2023-04-28T05:25:26.416Z,7.70
2023-04-28T05:27:56.220Z,8.90
2023-04-28T05:30:24.631Z,10.60
2023-04-28T05:32:52.906Z,12.40
2023-04-28T05:35:21.713Z,13.60
2023-04-28T05:37:50.162Z,14.40
2023-04-28T05:40:18.887Z,15.00
2023-04-28T05:42:47.201Z,15.10
2023-04-28T05:45:17.153Z,15.90
2023-04-28T05:47:45.842Z,17.10
2023-04-28T05:50:14.175Z,17.20
2023-04-28T05:52:42.553Z,17.60
2023-04-28T05:55:11.781Z,17.90
2023-04-28T05:57:49.821Z,18.50
2023-04-28T06:00:23.067Z,18.60
2023-04-28T06:02:51.604Z,18.70
2023-04-28T06:05:20.329Z,19.20
2023-04-28T06:07:50.189Z,20.00
2023-04-28T06:10:18.878Z,20.00
2023-04-28T06:12:47.585Z,20.70
2023-04-28T06:15:16.095Z,20.70
2023-04-28T06:17:46.321Z,19.20
2023-04-28T06:20:14.906Z,18.20
2023-04-28T06:22:43.421Z,17.80
2023-04-28T06:25:11.865Z,17.10
2023-04-28T06:27:40.651Z,16.30
2023-04-28T06:30:10.103Z,15.10
2023-04-28T06:32:38.662Z,14.60
2023-04-28T06:35:09.214Z,14.50
2023-04-28T06:37:37.580Z,14.60
2023-04-28T06:40:06.721Z,14.40
2023-04-28T06:42:35.219Z,14.00
2023-04-28T06:45:03.723Z,14.00
2023-04-28T06:47:32.098Z,14.00
2023-04-28T06:50:01.886Z,13.60
2023-04-28T06:52:38.676Z,13.60
2023-04-28T06:55:09.509Z,13.60
2023-04-28T06:57:38.408Z,14.00
2023-04-28T07:00:08.342Z,15.70
2023-04-28T07:02:37.273Z,17.10
2023-04-28T07:05:06.158Z,18.30
2023-04-28T07:07:36.164Z,18.80
2023-04-28T07:10:04.681Z,19.00
2023-04-28T07:12:33.194Z,18.80
2023-04-28T07:15:01.656Z,18.60
2023-04-28T07:17:30.053Z,19.20
2023-04-28T07:19:58.599Z,19.90
2023-04-28T07:22:27.216Z,20.10
2023-04-28T07:24:57.066Z,20.10
2023-04-28T07:27:25.536Z,21.20
2023-04-28T07:29:53.931Z,22.10
2023-04-28T07:32:22.669Z,21.40
2023-04-28T07:34:51.307Z,20.70
2023-04-28T07:37:20.455Z,19.80
2023-04-28T07:39:48.938Z,20.10
2023-04-28T07:42:19.227Z,19.40
2023-04-28T07:44:47.584Z,19.10
2023-04-28T07:47:16.434Z,18.40
2023-04-28T07:49:44.777Z,19.00
2023-04-28T07:52:13.259Z,19.30
2023-04-28T07:54:41.640Z,19.10
2023-04-28T07:57:10.832Z,19.00
2023-04-28T07:59:40.797Z,18.80
2023-04-28T08:02:09.473Z,18.90
2023-04-28T08:04:39.304Z,18.90
2023-04-28T08:07:07.802Z,19.80
2023-04-28T08:09:36.429Z,19.50
2023-04-28T08:12:05.476Z,19.00
2023-04-28T08:14:33.917Z,19.90
2023-04-28T08:17:04.091Z,20.10
2023-04-28T08:19:33.485Z,20.60
2023-04-28T08:22:05.989Z,20.50
2023-04-28T08:24:35.379Z,19.70
2023-04-28T08:27:04.351Z,19.50
2023-04-28T08:29:32.856Z,18.70
2023-04-28T08:32:02.418Z,17.40
2023-04-28T08:34:32.338Z,16.50
2023-04-28T08:37:00.933Z,15.80
2023-04-28T08:39:30.894Z,15.00
2023-04-28T08:41:59.319Z,14.90
2023-04-28T08:44:27.645Z,14.70
2023-04-28T08:47:00.885Z,14.30
2023-04-28T08:49:37.179Z,14.50
2023-04-28T08:52:11.142Z,14.50
2023-04-28T08:54:41.785Z,14.30
2023-04-28T08:57:11.458Z,14.30
2023-04-28T08:59:41.748Z,14.20
2023-04-28T09:02:10.663Z,14.30
2023-04-28T09:04:40.994Z,14.30
2023-04-28T09:07:13.156Z,14.60
2023-04-28T09:09:42.050Z,14.70
2023-04-28T09:12:10.409Z,14.80
2023-04-28T09:14:40.061Z,14.90
2023-04-28T09:17:13.372Z,14.90
2023-04-28T09:19:43.916Z,15.10
2023-04-28T09:22:24.744Z,15.20
2023-04-28T09:24:55.509Z,14.90
2023-04-28T09:27:29.016Z,15.00
2023-04-28T09:29:57.559Z,15.20
2023-04-28T09:32:28.107Z,15.40
2023-04-28T09:34:58.309Z,14.60
2023-04-28T09:37:30.981Z,15.80
2023-04-28T09:40:04.914Z,16.00
2023-04-28T09:42:34.872Z,16.00
2023-04-28T09:45:04.090Z,16.10
2023-04-28T09:47:35.180Z,15.80
2023-04-28T09:50:06.823Z,15.90
2023-04-28T09:52:35.963Z,15.90
2023-04-28T09:55:06.337Z,15.90
2023-04-28T09:57:36.070Z,16.10
2023-04-28T10:00:07.091Z,16.30
2023-04-28T10:05:11.627Z,16.30
2023-04-28T10:07:40.646Z,16.50
2023-04-28T10:10:09.895Z,16.50
2023-04-28T10:12:39.197Z,16.40
2023-04-28T10:15:10.821Z,16.10
2023-04-28T10:17:40.709Z,16.10
2023-04-28T10:20:12.656Z,16.00
2023-04-28T10:22:55.441Z,16.00
2023-04-28T10:25:29.888Z,16.10
2023-04-28T10:27:59.531Z,16.00
2023-04-28T10:30:30.342Z,16.30
2023-04-28T10:33:27.479Z,16.30
2023-04-28T10:35:57.379Z,16.50
2023-04-28T10:38:25.730Z,16.80
2023-04-28T10:40:55.185Z,17.20
2023-04-28T10:43:37.781Z,17.50
2023-04-28T10:46:10.786Z,17.40
2023-04-28T10:48:58.233Z,17.60
2023-04-28T10:51:33.302Z,17.80
2023-04-28T10:54:20.625Z,17.60
2023-04-28T10:57:18.174Z,17.00
2023-04-28T10:59:46.821Z,17.40
2023-04-28T11:02:43.640Z,17.50
2023-04-28T11:05:19.095Z,17.70
2023-04-28T11:08:31.109Z,17.90
2023-04-28T11:11:20.115Z,18.00
2023-04-28T11:13:49.613Z,18.00
2023-04-28T11:16:20.039Z,18.10
2023-04-28T11:18:59.449Z,17.70
2023-04-28T11:21:29.525Z,17.40
2023-04-28T11:23:59.111Z,17.10
2023-04-28T11:26:29.732Z,17.10
2023-04-28T11:28:59.644Z,17.20
2023-04-28T11:31:28.985Z,17.10
2023-04-28T11:34:06.901Z,17.20
2023-04-28T11:36:37.217Z,17.30
2023-04-28T11:39:07.793Z,17.50
2023-04-28T11:41:38.343Z,17.50
2023-04-28T11:44:16.018Z,17.70
2023-04-28T11:46:51.110Z,17.70
2023-04-28T11:49:21.362Z,18.00
2023-04-28T11:51:50.489Z,18.10
2023-04-28T11:54:24.278Z,17.80
2023-04-28T11:56:54.911Z,17.80
2023-04-28T11:59:27.336Z,17.90
2023-04-28T12:01:59.429Z,17.80
2023-04-28T12:04:35.884Z,17.60
2023-04-28T12:07:07.185Z,17.80
2023-04-28T12:09:36.564Z,18.00
2023-04-28T12:12:07.682Z,18.00
2023-04-28T12:14:56.547Z,17.70
2023-04-28T12:17:26.231Z,17.60
2023-04-28T12:19:54.831Z,18.00
2023-04-28T12:22:23.621Z,18.20
2023-04-28T12:25:06.942Z,18.40
2023-04-28T12:27:39.269Z,18.70
2023-04-28T12:30:26.185Z,18.60
2023-04-28T12:32:58.308Z,18.60
2023-04-28T12:35:27.478Z,18.60
2023-04-28T12:37:58.632Z,18.70
2023-04-28T12:40:27.558Z,18.70
2023-04-28T12:42:57.426Z,18.50
2023-04-28T12:45:25.900Z,18.70
2023-04-28T12:47:54.508Z,18.70
2023-04-28T12:50:23.095Z,18.70
2023-04-28T12:52:51.674Z,18.50
2023-04-28T12:55:20.335Z,18.60
2023-04-28T12:57:48.881Z,18.70
2023-04-28T13:00:23.395Z,18.70
2023-04-28T13:02:53.441Z,18.70
2023-04-28T13:05:22.053Z,18.70
2023-04-28T13:07:51.049Z,18.90
2023-04-28T13:10:21.500Z,18.90
2023-04-28T13:12:49.967Z,19.50
2023-04-28T13:15:20.309Z,18.80
2023-04-28T13:17:50.187Z,18.90
2023-04-28T13:20:18.967Z,18.40
2023-04-28T13:22:47.634Z,18.20
2023-04-28T13:25:16.572Z,18.00
2023-04-28T13:27:45.371Z,17.60
2023-04-28T13:30:15.094Z,17.90
2023-04-28T13:32:45.226Z,18.10
2023-04-28T13:35:14.025Z,17.90
2023-04-28T13:37:46.193Z,17.60
2023-04-28T13:40:15.109Z,17.70
2023-04-28T13:42:43.933Z,17.90
2023-04-28T13:45:13.977Z,17.90
2023-04-28T13:47:45.612Z,17.90
2023-04-28T13:50:14.252Z,17.90
2023-04-28T13:52:43.040Z,17.80
2023-04-28T13:55:11.730Z,18.00
2023-04-28T13:57:40.442Z,18.10
2023-04-28T14:00:10.281Z,18.30
2023-04-28T14:02:39.811Z,18.10
2023-04-28T14:05:11.615Z,17.60
2023-04-28T14:07:40.277Z,17.40
2023-04-28T14:10:09.509Z,17.30
2023-04-28T14:12:38.475Z,17.00
2023-04-28T14:15:08.338Z,16.70
2023-04-28T14:17:37.938Z,16.60
2023-04-28T14:20:07.906Z,16.40
2023-04-28T14:22:37.972Z,16.40
2023-04-28T14:25:08.197Z,16.30
2023-04-28T14:27:36.957Z,16.20
2023-04-28T14:30:06.449Z,16.20
2023-04-28T14:32:35.555Z,16.20
2023-04-28T14:35:06.375Z,16.20
2023-04-28T14:37:35.363Z,16.20
2023-04-28T14:40:06.236Z,16.10
2023-04-28T14:42:37.303Z,16.00
2023-04-28T14:45:06.958Z,16.00
2023-04-28T14:47:36.172Z,16.00
2023-04-28T14:50:05.831Z,15.90
2023-04-28T14:52:34.720Z,15.90
2023-04-28T14:55:05.521Z,15.90
2023-04-28T14:57:35.601Z,15.90
2023-04-28T15:00:04.896Z,16.00
2023-04-28T15:02:33.523Z,16.20
2023-04-28T15:05:02.555Z,16.10
2023-04-28T15:07:32.739Z,16.20
2023-04-28T15:10:01.261Z,16.00
2023-04-28T15:12:32.579Z,16.00
2023-04-28T15:15:00.980Z,15.80
2023-04-28T15:17:29.499Z,15.70
2023-04-28T15:19:57.937Z,15.60
2023-04-28T15:22:26.413Z,15.40
2023-04-28T15:24:56.050Z,15.30
2023-04-28T15:27:24.516Z,15.20
2023-04-28T15:29:55.756Z,15.10
2023-04-28T15:32:24.269Z,15.00
2023-04-28T15:34:53.007Z,14.90
2023-04-28T15:37:41.671Z,14.80
2023-04-28T15:40:12.022Z,14.70
2023-04-28T15:42:42.307Z,14.60
2023-04-28T15:45:13.425Z,14.70
2023-04-28T15:47:42.757Z,14.60
2023-04-28T15:50:12.485Z,14.60
2023-04-28T15:52:46.077Z,14.70
2023-04-28T15:55:15.295Z,14.80
2023-04-28T15:57:44.601Z,14.90
2023-04-28T16:00:15.881Z,15.60
2023-04-28T16:02:45.316Z,14.70
2023-04-28T16:05:14.244Z,14.70
2023-04-28T16:07:42.925Z,14.60
2023-04-28T16:10:12.688Z,14.40
2023-04-28T16:12:41.920Z,14.30
2023-04-28T16:15:12.786Z,14.20
2023-04-28T16:17:44.459Z,14.20
2023-04-28T16:20:13.726Z,14.30
2023-04-28T16:22:43.206Z,14.20
2023-04-28T16:25:12.284Z,14.30
2023-04-28T16:27:41.844Z,14.30
2023-04-28T16:30:11.206Z,14.40
2023-04-28T16:32:40.845Z,14.40
2023-04-28T16:35:15.239Z,14.40
2023-04-28T16:37:44.694Z,14.40
2023-04-28T16:40:14.474Z,14.40
2023-04-28T16:42:43.628Z,14.40
2023-04-28T16:45:13.078Z,14.40
2023-04-28T16:47:43.500Z,14.30
2023-04-28T16:50:15.075Z,14.30
2023-04-28T16:52:43.580Z,14.30
2023-04-28T16:55:12.221Z,14.30
2023-04-28T16:57:41.526Z,14.30
2023-04-28T17:00:11.290Z,14.30
2023-04-28T17:02:39.851Z,14.20
2023-04-28T17:05:09.260Z,14.20
2023-04-28T17:07:39.176Z,14.20
2023-04-28T17:10:08.472Z,14.20
2023-04-28T17:12:36.916Z,14.20
2023-04-28T17:15:06.106Z,14.10
2023-04-28T17:17:34.821Z,14.10
2023-04-28T17:20:03.652Z,13.90
2023-04-28T17:22:33.263Z,13.90
2023-04-28T17:25:03.036Z,13.80
2023-04-28T17:27:31.680Z,13.80
2023-04-28T17:30:00.011Z,13.70
2023-04-28T17:32:28.809Z,13.70
2023-04-28T17:34:57.193Z,13.60
2023-04-28T17:37:25.580Z,13.50
2023-04-28T17:39:53.920Z,13.40
2023-04-28T17:42:23.700Z,13.30
2023-04-28T17:44:52.427Z,13.30
2023-04-28T17:47:20.969Z,13.20
2023-04-28T17:49:49.270Z,13.10
2023-04-28T17:52:17.594Z,13.00
2023-04-28T17:54:45.910Z,13.00
2023-04-28T17:57:14.525Z,13.00
2023-04-28T17:59:45.432Z,13.00
2023-04-28T18:02:13.927Z,12.90
2023-04-28T18:04:42.341Z,13.00
2023-04-28T18:07:10.756Z,12.90
2023-04-28T18:09:39.086Z,12.90
2023-04-28T18:12:07.787Z,12.90
2023-04-28T18:14:36.151Z,12.90
2023-04-28T18:17:05.859Z,12.80
2023-04-28T18:19:34.317Z,12.80
2023-04-28T18:22:02.791Z,12.80
2023-04-28T18:24:31.493Z,12.80
2023-04-28T18:26:59.972Z,12.80
2023-04-28T18:29:28.494Z,12.80
2023-04-28T18:31:56.930Z,12.80
2023-04-28T18:34:27.451Z,12.70
2023-04-28T18:36:55.772Z,12.60
2023-04-28T18:39:24.094Z,12.60
2023-04-28T18:41:52.649Z,12.60
2023-04-28T18:44:21.144Z,12.60
2023-04-28T18:46:49.496Z,12.50
2023-04-28T18:49:17.903Z,12.50
2023-04-28T18:51:47.527Z,12.40
2023-04-28T18:54:17.077Z,12.40
2023-04-28T18:56:45.662Z,12.40
2023-04-28T18:59:13.909Z,12.40
2023-04-28T19:01:42.306Z,12.40
2023-04-28T19:04:11.052Z,12.30
2023-04-28T19:06:39.579Z,12.40
2023-04-28T19:09:09.431Z,12.40
2023-04-28T19:11:37.777Z,12.30
2023-04-28T19:14:06.678Z,12.40
2023-04-28T19:16:35.141Z,12.40
2023-04-28T19:19:03.628Z,12.40
2023-04-28T19:21:34.645Z,12.40
2023-04-28T19:24:03.077Z,12.40
2023-04-28T19:26:32.769Z,12.40
2023-04-28T19:29:01.344Z,12.40
2023-04-28T19:31:29.764Z,12.40
2023-04-28T19:33:59.036Z,12.40
2023-04-28T19:36:28.470Z,12.40
2023-04-28T19:38:56.813Z,12.40
2023-04-28T19:41:25.221Z,12.30
2023-04-28T19:43:55.125Z,12.30
2023-04-28T19:46:23.490Z,12.30
2023-04-28T19:48:52.839Z,12.30
2023-04-28T19:51:21.498Z,12.30
2023-04-28T19:53:51.108Z,12.30
2023-04-28T19:56:20.460Z,12.30
2023-04-28T19:58:49.032Z,12.30
2023-04-28T20:01:18.808Z,12.30
2023-04-28T20:03:47.231Z,12.30
2023-04-28T20:06:18.847Z,12.30
2023-04-28T20:08:47.240Z,12.30
2023-04-28T20:11:15.514Z,12.30
2023-04-28T20:13:43.766Z,12.30
2023-04-28T20:16:12.229Z,12.20
2023-04-28T20:18:41.906Z,12.20
2023-04-28T20:21:10.504Z,12.20
2023-04-28T20:23:38.844Z,12.20
2023-04-28T20:26:07.182Z,12.20
2023-04-28T20:28:36.268Z,12.30
2023-04-28T20:31:08.756Z,12.20
2023-04-28T20:33:37.205Z,12.20
2023-04-28T20:36:07.014Z,12.30
2023-04-28T20:38:35.344Z,12.30
2023-04-28T20:41:04.544Z,12.30
2023-04-28T20:43:33.460Z,12.20
2023-04-28T20:46:01.766Z,12.20
2023-04-28T20:48:30.334Z,12.20
2023-04-28T20:50:59.009Z,12.10
2023-04-28T20:53:28.779Z,12.20
2023-04-28T20:55:57.418Z,12.10
2023-04-28T20:58:26.205Z,12.00
2023-04-28T21:00:54.664Z,12.00
2023-04-28T21:03:23.984Z,12.00
2023-04-28T21:05:52.441Z,11.90
2023-04-28T21:08:21.574Z,11.90
2023-04-28T21:10:51.587Z,11.90
2023-04-28T21:13:20.152Z,11.90
2023-04-28T21:15:48.722Z,11.80
2023-04-28T21:18:17.370Z,11.80
2023-04-28T21:20:45.929Z,11.80
2023-04-28T21:23:14.478Z,11.70
2023-04-28T21:25:42.886Z,11.80
2023-04-28T21:28:12.996Z,11.70
2023-04-28T21:30:41.520Z,11.80
2023-04-28T21:33:10.059Z,11.80
2023-04-28T21:35:38.673Z,11.80
2023-04-28T21:38:08.004Z,11.80
2023-04-28T21:40:36.478Z,11.80
2023-04-28T21:43:06.053Z,11.80
2023-04-28T21:45:36.174Z,11.80
2023-04-28T21:48:06.466Z,11.80
2023-04-28T21:50:36.450Z,11.80
2023-04-28T21:53:05.356Z,11.80
2023-04-28T21:55:33.843Z,11.80
2023-04-28T21:58:02.421Z,11.80
2023-04-28T22:00:31.349Z,11.80
2023-04-28T22:03:01.464Z,11.80
2023-04-28T22:05:30.166Z,11.70
2023-04-28T22:07:58.668Z,11.70
2023-04-28T22:10:27.370Z,11.70
2023-04-28T22:12:56.021Z,11.70
2023-04-28T22:15:24.532Z,11.70
2023-04-28T22:17:53.256Z,11.70
2023-04-28T22:20:23.340Z,11.70
2023-04-28T22:22:52.796Z,11.70
2023-04-28T22:25:21.588Z,11.70
2023-04-28T22:27:50.460Z,11.70
2023-04-28T22:30:19.790Z,11.70
2023-04-28T22:32:48.627Z,11.70
2023-04-28T22:35:18.092Z,11.70
2023-04-28T22:37:48.327Z,11.70
2023-04-28T22:40:17.234Z,11.70
2023-04-28T22:42:46.652Z,11.70
2023-04-28T22:45:15.667Z,11.70
2023-04-28T22:47:44.936Z,11.70
2023-04-28T22:50:13.861Z,11.60
2023-04-28T22:52:42.861Z,11.60
2023-04-28T22:55:13.474Z,11.60
2023-04-28T22:57:43.804Z,11.60
2023-04-28T23:00:16.280Z,11.60
2023-04-28T23:02:45.420Z,11.60
2023-04-28T23:05:14.882Z,11.60
2023-04-28T23:07:44.515Z,11.00
2023-04-28T23:10:15.823Z,11.50
2023-04-28T23:12:45.216Z,11.50
2023-04-28T23:15:14.555Z,11.50
2023-04-28T23:17:43.624Z,11.50
2023-04-28T23:20:13.593Z,11.50
2023-04-28T23:22:42.783Z,11.50
2023-04-28T23:25:11.895Z,11.50
2023-04-28T23:27:42.132Z,11.50
2023-04-28T23:30:12.101Z,11.50
2023-04-28T23:32:40.876Z,11.50
2023-04-28T23:35:10.304Z,11.50
2023-04-28T23:37:39.418Z,11.50
2023-04-28T23:40:09.128Z,11.50
2023-04-28T23:42:37.510Z,11.50
2023-04-28T23:45:09.891Z,11.50
2023-04-28T23:47:38.416Z,11.50
2023-04-28T23:50:08.331Z,11.50
2023-04-28T23:52:37.577Z,11.50
2023-04-28T23:55:07.095Z,11.50
2023-04-28T23:57:36.332Z,11.50
